KGCC/GCC METAR and TAF weather

Enter ICAO airport designator
Station Type Date Time Source
KGCC METAR 2022/12/05 15:53 UTC NOAA

KGCC 051553Z AUTO 02007KT 10SM OVC007 M07/M08 A2984 RMK AO2 SLP147 T10671078


Station Type Date Time Source
KGCC Decoded METAR 2022/12/05 15:53 UTC NOAA

GILLETTE-CAMPBELL CTY AIRPORT , WY, United States (KGCC) 44-20N 105-33W 1320M
Dec 05, 2022 - 10:53 AM EST / 2022.12.05 1553 UTC
Wind: from the NNE (020 degrees) at 8 MPH (7 KT):0
Visibility: 10 mile(s):0
Sky conditions: overcast
Temperature: 19.9 F (-6.7 C)
Windchill: 10 F (-12 C):1
Dew Point: 18.0 F (-7.8 C)
Relative Humidity: 91%
Pressure (altimeter): 29.84 in. Hg (1010 hPa)
ob: KGCC 051553Z AUTO 02007KT 10SM OVC007 M07/M08 A2984 RMK AO2 SLP147 T10671078
cycle: 16

Station Type Date Time Source
KGCC TAF 2022/12/05 13:45 UTC NOAA

TAF
AMD KGCC 051242Z 0513/0612 06007KT 2SM -SN BKN012 OVC025
FM051900 VRB04KT P6SM OVC025
FM060100 23011KT P6SM SCT250

Example: see airport list